createdAt,value
2023-02-02T00:02:24.621Z,101221.69
2023-02-02T00:04:53.078Z,101214.64
2023-02-02T00:07:21.453Z,101214.48
2023-02-02T00:09:49.751Z,101213.44
2023-02-02T00:12:18.048Z,101223.23
2023-02-02T00:14:46.605Z,101229.25
2023-02-02T00:17:15.468Z,101230.30
2023-02-02T00:19:46.209Z,101225.51
2023-02-02T00:22:15.815Z,101227.93
2023-02-02T00:24:44.326Z,101237.04
2023-02-02T00:27:13.292Z,101229.48
2023-02-02T00:29:41.873Z,101229.09
2023-02-02T00:32:10.567Z,101231.25
2023-02-02T00:34:41.494Z,101229.59
2023-02-02T00:37:09.803Z,101224.01
2023-02-02T00:39:38.760Z,101222.30
2023-02-02T00:42:07.146Z,101218.89
2023-02-02T00:44:54.053Z,101218.92
2023-02-02T00:47:22.839Z,101213.09
2023-02-02T00:49:51.551Z,101205.01
2023-02-02T00:52:19.808Z,101211.20
2023-02-02T00:54:48.587Z,101204.34
2023-02-02T00:57:16.973Z,101195.77
2023-02-02T00:59:45.651Z,101197.02
2023-02-02T01:02:14.420Z,101197.03
2023-02-02T01:04:43.128Z,101192.21
2023-02-02T01:07:11.605Z,101192.89
2023-02-02T01:09:39.996Z,101198.35
2023-02-02T01:12:11.022Z,101204.17
2023-02-02T01:14:39.816Z,101206.41
2023-02-02T01:17:08.298Z,101207.95
2023-02-02T01:19:36.717Z,101210.88
2023-02-02T01:22:05.368Z,101209.33
2023-02-02T01:24:33.629Z,101212.92
2023-02-02T01:27:02.846Z,101225.10
2023-02-02T01:29:33.665Z,101223.66
2023-02-02T01:32:02.143Z,101221.05
2023-02-02T01:34:30.934Z,101214.67
2023-02-02T01:36:59.240Z,101212.09
2023-02-02T01:39:28.093Z,101210.89
2023-02-02T01:41:57.707Z,101205.21
2023-02-02T01:45:11.154Z,101203.46
2023-02-02T01:47:53.166Z,101201.02
2023-02-02T01:50:23.416Z,101197.90
2023-02-02T01:52:51.836Z,101193.75
2023-02-02T01:55:22.172Z,101202.51
2023-02-02T01:58:02.834Z,101195.13
2023-02-02T02:00:31.542Z,101183.29
2023-02-02T02:03:12.799Z,101179.34
2023-02-02T02:05:43.110Z,101182.23
2023-02-02T02:08:24.174Z,101182.89
2023-02-02T02:10:52.981Z,101184.75
2023-02-02T02:13:23.169Z,101182.69
2023-02-02T02:16:21.597Z,101182.53
2023-02-02T02:19:02.858Z,101180.14
2023-02-02T02:22:05.949Z,101177.56
2023-02-02T02:25:03.619Z,101175.99
2023-02-02T02:27:56.266Z,101178.52
2023-02-02T02:30:24.781Z,101180.20
2023-02-02T02:33:04.915Z,101174.34
2023-02-02T02:35:41.699Z,101168.65
2023-02-02T02:38:29.298Z,101174.48
2023-02-02T02:41:00.440Z,101186.52
2023-02-02T02:43:31.262Z,101187.87
2023-02-02T02:45:59.905Z,101191.98
2023-02-02T02:48:29.681Z,101192.45
2023-02-02T02:51:29.898Z,101196.00
2023-02-02T02:53:58.992Z,101194.41
2023-02-02T02:56:35.978Z,101196.61
2023-02-02T02:59:44.796Z,101198.34
2023-02-02T03:02:17.145Z,101198.67
2023-02-02T03:04:56.710Z,101190.94
2023-02-02T03:07:29.196Z,101196.43
2023-02-02T03:09:57.668Z,101196.41
2023-02-02T03:12:25.951Z,101197.93
2023-02-02T03:14:54.936Z,101200.52
2023-02-02T03:17:23.219Z,101204.64
2023-02-02T03:19:51.689Z,101202.93
2023-02-02T03:22:20.169Z,101198.66
2023-02-02T03:24:48.444Z,101204.65
2023-02-02T03:27:16.924Z,101207.88
2023-02-02T03:29:45.813Z,101200.83
2023-02-02T03:32:14.293Z,101198.39
2023-02-02T03:34:42.876Z,101200.45
2023-02-02T03:37:11.268Z,101200.28
2023-02-02T03:39:40.044Z,101203.54
2023-02-02T03:42:08.522Z,101202.66
2023-02-02T03:44:37.820Z,101201.78
2023-02-02T03:47:06.232Z,101202.92
2023-02-02T03:49:34.658Z,101208.19
2023-02-02T03:52:05.211Z,101213.45
2023-02-02T03:54:33.687Z,101209.15
2023-02-02T03:57:02.167Z,101208.14
2023-02-02T03:59:31.168Z,101206.59
2023-02-02T04:01:59.483Z,101205.39
2023-02-02T04:04:28.328Z,101209.33
2023-02-02T04:06:58.957Z,101208.77
2023-02-02T04:09:28.371Z,101211.15
2023-02-02T04:11:56.841Z,101211.15
2023-02-02T04:14:25.423Z,101209.61
2023-02-02T04:16:54.037Z,101208.23
2023-02-02T04:19:24.873Z,101205.98
2023-02-02T04:21:54.038Z,101204.75
2023-02-02T04:24:22.315Z,101207.44
2023-02-02T04:26:51.055Z,101209.45
2023-02-02T04:29:19.531Z,101218.35
2023-02-02T04:31:48.229Z,101234.10
2023-02-02T04:34:16.749Z,101237.89
2023-02-02T04:36:45.255Z,101239.80
2023-02-02T04:39:13.810Z,101240.50
2023-02-02T04:41:42.497Z,101236.89
2023-02-02T04:44:18.676Z,101238.94
2023-02-02T04:46:50.108Z,101238.41
2023-02-02T04:49:18.619Z,101232.59
2023-02-02T04:51:47.273Z,101233.83
2023-02-02T04:54:19.232Z,101229.06
2023-02-02T04:56:47.611Z,101228.76
2023-02-02T04:59:16.298Z,101230.10
2023-02-02T05:01:44.903Z,101228.02
2023-02-02T05:04:13.504Z,101228.02
2023-02-02T05:06:41.841Z,101226.47
2023-02-02T05:09:11.040Z,101226.16
2023-02-02T05:11:41.259Z,101231.84
2023-02-02T05:14:09.947Z,101231.33
2023-02-02T05:16:40.296Z,101233.53
2023-02-02T05:19:10.342Z,101234.36
2023-02-02T05:21:39.398Z,101231.95
2023-02-02T05:24:07.779Z,101230.39
2023-02-02T05:26:36.067Z,101234.35
2023-02-02T05:29:04.410Z,101227.50
2023-02-02T05:31:33.562Z,101231.27
2023-02-02T05:34:02.088Z,101232.14
2023-02-02T05:36:30.980Z,101233.33
2023-02-02T05:39:00.685Z,101235.02
2023-02-02T05:41:30.158Z,101230.39
2023-02-02T05:44:01.915Z,101234.52
2023-02-02T05:46:30.744Z,101231.09
2023-02-02T05:48:59.641Z,101237.61
2023-02-02T05:51:33.856Z,101238.13
2023-02-02T05:54:02.677Z,101240.67
2023-02-02T05:56:31.330Z,101245.95
2023-02-02T05:59:00.413Z,101245.30
2023-02-02T06:01:29.100Z,101243.55
2023-02-02T06:03:57.787Z,101240.16
2023-02-02T06:06:26.278Z,101240.38
2023-02-02T06:08:54.885Z,101236.79
2023-02-02T06:11:23.629Z,101236.39
2023-02-02T06:13:52.314Z,101245.06
2023-02-02T06:16:20.801Z,101243.75
2023-02-02T06:18:49.171Z,101242.26
2023-02-02T06:21:20.037Z,101244.58
2023-02-02T06:23:48.364Z,101243.84
2023-02-02T06:26:17.038Z,101250.64
2023-02-02T06:28:49.339Z,101250.57
2023-02-02T06:31:20.682Z,101250.50
2023-02-02T06:33:53.988Z,101251.20
2023-02-02T06:36:22.381Z,101252.14
2023-02-02T06:38:54.728Z,101257.18
2023-02-02T06:41:23.217Z,101258.80
2023-02-02T06:43:52.204Z,101256.08
2023-02-02T06:46:20.806Z,101255.42
2023-02-02T06:48:49.166Z,101254.77
2023-02-02T06:51:17.644Z,101255.67
2023-02-02T06:53:48.476Z,101253.13
2023-02-02T06:56:17.272Z,101253.14
2023-02-02T06:58:45.867Z,101256.23
2023-02-02T07:01:14.591Z,101260.34
2023-02-02T07:03:43.437Z,101263.41
2023-02-02T07:06:25.631Z,101268.16
2023-02-02T07:09:02.037Z,101268.84
2023-02-02T07:11:35.565Z,101265.88
2023-02-02T07:14:07.149Z,101265.38
2023-02-02T07:16:35.627Z,101266.95
2023-02-02T07:19:04.311Z,101266.48
2023-02-02T07:21:36.404Z,101269.10
2023-02-02T07:24:06.087Z,101269.49
2023-02-02T07:26:36.319Z,101269.36
2023-02-02T07:29:05.094Z,101268.18
2023-02-02T07:31:36.740Z,101267.36
2023-02-02T07:34:06.157Z,101273.58
2023-02-02T07:36:34.634Z,101268.42
2023-02-02T07:39:05.273Z,101273.11
2023-02-02T07:41:35.306Z,101275.05
2023-02-02T07:44:04.590Z,101273.73
2023-02-02T07:46:32.938Z,101276.35
2023-02-02T07:49:01.333Z,101276.90
2023-02-02T07:51:29.717Z,101281.91
2023-02-02T07:53:59.725Z,101279.52
2023-02-02T07:56:28.534Z,101277.45
2023-02-02T07:58:57.204Z,101274.54
2023-02-02T08:01:26.605Z,101275.77
2023-02-02T08:03:55.802Z,101273.71
2023-02-02T08:06:24.841Z,101276.85
2023-02-02T08:08:53.275Z,101280.33
2023-02-02T08:11:23.298Z,101282.24
2023-02-02T08:13:53.530Z,101280.70
2023-02-02T08:16:22.245Z,101279.86
2023-02-02T08:18:50.894Z,101280.16
2023-02-02T08:21:19.927Z,101278.31
2023-02-02T08:23:48.352Z,101277.98
2023-02-02T08:26:19.314Z,101276.95
2023-02-02T08:28:48.941Z,101282.48
2023-02-02T08:31:21.955Z,101276.48
2023-02-02T08:33:50.467Z,101279.59
2023-02-02T08:36:19.898Z,101278.56
2023-02-02T08:38:48.309Z,101281.34
2023-02-02T08:41:19.596Z,101280.83
2023-02-02T08:43:48.382Z,101280.13
2023-02-02T08:46:18.390Z,101282.38
2023-02-02T08:48:47.288Z,101283.94
2023-02-02T08:51:17.063Z,101278.23
2023-02-02T08:53:45.785Z,101278.59
2023-02-02T08:56:15.813Z,101275.67
2023-02-02T08:58:45.930Z,101276.19
2023-02-02T09:01:19.557Z,101272.91
2023-02-02T09:03:48.000Z,101274.30
2023-02-02T09:06:19.354Z,101273.77
2023-02-02T09:08:47.991Z,101267.39
2023-02-02T09:11:17.718Z,101262.02
2023-02-02T09:13:47.232Z,101260.47
2023-02-02T09:16:17.727Z,101256.67
2023-02-02T09:18:46.187Z,101252.70
2023-02-02T09:21:16.066Z,101249.05
2023-02-02T09:23:44.865Z,101246.11
2023-02-02T09:26:17.979Z,101238.48
2023-02-02T09:28:48.303Z,101240.02
2023-02-02T09:31:17.073Z,101230.33
2023-02-02T09:33:45.809Z,101233.59
2023-02-02T09:36:15.774Z,101231.52
2023-02-02T09:38:44.336Z,101226.83
2023-02-02T09:41:27.771Z,101223.89
2023-02-02T09:44:15.295Z,101219.56
2023-02-02T09:47:02.013Z,101221.09
2023-02-02T09:49:43.199Z,101220.02
2023-02-02T09:52:17.689Z,101219.33
2023-02-02T09:54:47.827Z,101216.68
2023-02-02T09:57:29.403Z,101216.14
2023-02-02T09:59:57.724Z,101206.77
2023-02-02T10:02:33.865Z,101204.32
2023-02-02T10:05:09.701Z,101201.35
2023-02-02T10:07:40.692Z,101199.59
2023-02-02T10:10:26.098Z,101198.52
2023-02-02T10:13:00.351Z,101198.34
2023-02-02T10:15:50.864Z,101192.79
2023-02-02T10:18:42.959Z,101193.46
2023-02-02T10:21:42.982Z,101190.84
2023-02-02T10:24:24.887Z,101188.92
2023-02-02T10:27:09.636Z,101187.15
2023-02-02T10:29:49.106Z,101181.41
2023-02-02T10:32:31.188Z,101181.04
2023-02-02T10:35:37.442Z,101181.52
2023-02-02T10:38:16.469Z,101177.33
2023-02-02T10:41:04.813Z,101173.85
2023-02-02T10:44:01.661Z,101178.13
2023-02-02T10:46:51.008Z,101178.09
2023-02-02T10:49:24.428Z,101179.44
2023-02-02T10:52:17.609Z,101178.51
2023-02-02T10:54:59.545Z,101175.34
2023-02-02T10:57:35.021Z,101173.20
2023-02-02T11:00:11.112Z,101168.98
2023-02-02T11:02:39.593Z,101163.41
2023-02-02T11:05:32.832Z,101161.11
2023-02-02T11:08:01.305Z,101164.52
2023-02-02T11:10:31.763Z,101165.02
2023-02-02T11:13:02.091Z,101166.39
2023-02-02T11:15:30.843Z,101164.30
2023-02-02T11:18:22.395Z,101164.30
2023-02-02T11:20:51.049Z,101157.73
2023-02-02T11:23:20.044Z,101164.85
2023-02-02T11:25:58.287Z,101164.66
2023-02-02T11:28:30.532Z,101167.39
2023-02-02T11:30:59.720Z,101170.15
2023-02-02T11:33:33.322Z,101170.11
2023-02-02T11:36:23.134Z,101170.43
2023-02-02T11:39:15.333Z,101170.24
2023-02-02T11:41:43.925Z,101173.02
2023-02-02T11:44:29.289Z,101169.05
2023-02-02T11:46:57.871Z,101167.84
2023-02-02T11:49:26.616Z,101169.22
2023-02-02T11:52:06.195Z,101169.72
2023-02-02T11:54:35.734Z,101166.41
2023-02-02T11:57:10.022Z,101162.23
2023-02-02T11:59:40.032Z,101166.48
2023-02-02T12:02:20.970Z,101167.27
2023-02-02T12:05:16.424Z,101164.42
2023-02-02T12:07:45.316Z,101166.30
2023-02-02T12:10:20.349Z,101162.83
2023-02-02T12:13:29.951Z,101162.52
2023-02-02T12:16:08.740Z,101159.65
2023-02-02T12:18:45.931Z,101158.50
2023-02-02T12:21:38.965Z,101160.27
2023-02-02T12:24:32.423Z,101160.45
2023-02-02T12:27:30.906Z,101161.30
2023-02-02T12:29:59.284Z,101160.40
2023-02-02T12:32:32.782Z,101161.93
2023-02-02T12:35:16.216Z,101160.92
2023-02-02T12:38:03.742Z,101157.14
2023-02-02T12:40:47.813Z,101158.43
2023-02-02T12:43:33.059Z,101157.48
2023-02-02T12:46:11.887Z,101164.73
2023-02-02T12:48:46.303Z,101165.54
2023-02-02T12:51:42.941Z,101166.16
2023-02-02T12:54:34.236Z,101173.70
2023-02-02T12:57:07.452Z,101176.34
2023-02-02T12:59:50.903Z,101179.13
2023-02-02T13:02:34.233Z,101178.98
2023-02-02T13:05:24.807Z,101179.54
2023-02-02T13:07:56.554Z,101187.37
2023-02-02T13:10:36.909Z,101187.94
2023-02-02T13:13:16.806Z,101192.13
2023-02-02T13:15:50.174Z,101192.31
2023-02-02T13:18:30.527Z,101187.29
2023-02-02T13:21:01.256Z,101187.45
2023-02-02T13:23:36.698Z,101185.85
2023-02-02T13:26:07.311Z,101186.33
2023-02-02T13:28:51.965Z,101187.34
2023-02-02T13:31:28.567Z,101185.77
2023-02-02T13:34:17.623Z,101182.33
2023-02-02T13:36:49.489Z,101175.05
2023-02-02T13:39:27.795Z,101173.84
2023-02-02T13:41:56.583Z,101171.94
2023-02-02T13:44:32.960Z,101172.97
2023-02-02T13:47:05.969Z,101173.33
2023-02-02T13:49:52.739Z,101174.88
2023-02-02T13:53:08.634Z,101173.34
2023-02-02T13:55:45.820Z,101170.46
2023-02-02T13:58:44.817Z,101167.06
2023-02-02T14:01:13.447Z,101162.08
2023-02-02T14:03:55.625Z,101159.48
2023-02-02T14:06:25.010Z,101156.23
2023-02-02T14:09:00.652Z,101156.75
2023-02-02T14:11:34.467Z,101154.36
2023-02-02T14:14:35.818Z,101163.04
2023-02-02T14:17:17.604Z,101160.98
2023-02-02T14:19:53.761Z,101159.77
2023-02-02T14:22:48.661Z,101163.23
2023-02-02T14:25:37.219Z,101166.51
2023-02-02T14:28:45.042Z,101168.44
2023-02-02T14:31:29.340Z,101168.46
2023-02-02T14:34:27.440Z,101162.98
2023-02-02T14:37:21.109Z,101165.75
2023-02-02T14:40:11.330Z,101169.90
2023-02-02T14:43:37.020Z,101168.37
2023-02-02T14:46:15.161Z,101169.43
2023-02-02T14:48:46.774Z,101175.16
2023-02-02T14:51:19.458Z,101176.39
2023-02-02T14:53:49.700Z,101179.68
2023-02-02T14:56:18.367Z,101182.09
2023-02-02T14:59:00.522Z,101177.80
2023-02-02T15:01:31.464Z,101181.95
2023-02-02T15:04:24.267Z,101176.41
2023-02-02T15:06:53.353Z,101179.18
2023-02-02T15:09:26.851Z,101180.75
2023-02-02T15:12:07.211Z,101184.04
2023-02-02T15:14:36.923Z,101187.34
2023-02-02T15:17:48.619Z,101188.23
2023-02-02T15:20:45.047Z,101192.71
2023-02-02T15:23:36.565Z,101201.52
2023-02-02T15:26:19.007Z,101202.04
2023-02-02T15:28:49.609Z,101205.81
2023-02-02T15:31:34.224Z,101206.69
2023-02-02T15:34:05.292Z,101203.05
2023-02-02T15:36:35.839Z,101203.23
2023-02-02T15:39:34.117Z,101207.39
2023-02-02T15:42:22.764Z,101210.15
2023-02-02T15:44:51.554Z,101214.98
2023-02-02T15:47:22.842Z,101218.61
2023-02-02T15:49:51.380Z,101218.78
2023-02-02T15:52:28.283Z,101217.40
2023-02-02T15:54:58.039Z,101221.39
2023-02-02T15:57:35.251Z,101222.76
2023-02-02T16:00:43.398Z,101225.00
2023-02-02T16:03:13.278Z,101226.76
2023-02-02T16:05:44.526Z,101232.11
2023-02-02T16:08:30.104Z,101230.54
2023-02-02T16:11:12.526Z,101233.13
2023-02-02T16:13:42.425Z,101234.00
2023-02-02T16:16:25.134Z,101235.91
2023-02-02T16:19:09.210Z,101236.78
2023-02-02T16:21:43.304Z,101240.06
2023-02-02T16:24:17.717Z,101245.77
2023-02-02T16:26:45.965Z,101247.31
2023-02-02T16:29:17.664Z,101248.87
2023-02-02T16:31:46.979Z,101255.27
2023-02-02T16:34:19.624Z,101257.35
2023-02-02T16:37:28.349Z,101259.73
2023-02-02T16:39:58.646Z,101256.81
2023-02-02T16:42:29.440Z,101263.89
2023-02-02T16:44:59.525Z,101267.71
2023-02-02T16:47:28.174Z,101268.05
2023-02-02T16:50:08.971Z,101268.58
2023-02-02T16:52:57.628Z,101267.52
2023-02-02T16:55:36.265Z,101274.26
2023-02-02T16:58:21.241Z,101278.94
2023-02-02T17:01:15.020Z,101273.77
2023-02-02T17:03:52.891Z,101272.41
2023-02-02T17:06:45.942Z,101279.84
2023-02-02T17:09:37.757Z,101278.12
2023-02-02T17:12:35.356Z,101278.47
2023-02-02T17:15:29.408Z,101284.88
2023-02-02T17:17:58.409Z,101288.54
2023-02-02T17:20:27.195Z,101289.21
2023-02-02T17:23:07.253Z,101289.91
2023-02-02T17:25:43.108Z,101289.56
2023-02-02T17:28:14.348Z,101286.11
2023-02-02T17:30:43.877Z,101281.45
2023-02-02T17:33:15.131Z,101276.96
2023-02-02T17:35:54.903Z,101278.70
2023-02-02T17:38:25.175Z,101279.57
2023-02-02T17:40:55.281Z,101276.65
2023-02-02T17:43:27.348Z,101273.71
2023-02-02T17:45:55.882Z,101274.92
2023-02-02T17:48:24.417Z,101273.02
2023-02-02T17:50:52.892Z,101270.96
2023-02-02T17:53:21.720Z,101273.72
2023-02-02T17:55:51.689Z,101273.39
2023-02-02T17:58:20.349Z,101272.88
2023-02-02T18:00:53.459Z,101279.45
2023-02-02T18:03:24.117Z,101279.27
2023-02-02T18:05:52.687Z,101282.56
2023-02-02T18:08:21.370Z,101285.68
2023-02-02T18:10:50.662Z,101282.58
2023-02-02T18:13:20.385Z,101281.36
2023-02-02T18:15:49.499Z,101278.77
2023-02-02T18:18:17.958Z,101277.23
2023-02-02T18:20:48.172Z,101275.34
2023-02-02T18:23:17.371Z,101274.64
2023-02-02T18:25:45.654Z,101285.34
2023-02-02T18:28:17.701Z,101290.67
2023-02-02T18:30:47.137Z,101297.07
2023-02-02T18:33:18.155Z,101298.27
2023-02-02T18:35:47.455Z,101297.05
2023-02-02T18:38:16.259Z,101302.21
2023-02-02T18:40:44.514Z,101303.95
2023-02-02T18:43:13.095Z,101304.29
2023-02-02T18:45:41.984Z,101303.95
2023-02-02T18:48:10.887Z,101303.45
2023-02-02T18:50:39.152Z,101304.30
2023-02-02T18:53:07.733Z,101303.27
2023-02-02T18:55:37.853Z,101304.31
2023-02-02T18:58:10.954Z,101303.63
2023-02-02T19:00:39.545Z,101303.28
2023-02-02T19:03:08.547Z,101302.23
2023-02-02T19:05:55.643Z,101302.94
2023-02-02T19:08:24.522Z,101302.94
2023-02-02T19:10:58.127Z,101303.63
2023-02-02T19:13:28.144Z,101305.00
2023-02-02T19:15:57.607Z,101306.21
2023-02-02T19:18:31.584Z,101304.14
2023-02-02T19:21:00.338Z,101306.90
2023-02-02T19:23:30.048Z,101308.11
2023-02-02T19:25:58.531Z,101307.42
2023-02-02T19:28:28.545Z,101311.55
2023-02-02T19:30:58.638Z,101312.23
2023-02-02T19:33:37.147Z,101312.23
2023-02-02T19:36:08.309Z,101315.69
2023-02-02T19:38:37.725Z,101312.39
2023-02-02T19:41:17.777Z,101313.25
2023-02-02T19:43:48.099Z,101314.27
2023-02-02T19:46:23.572Z,101322.55
2023-02-02T19:48:54.189Z,101330.48
2023-02-02T19:51:44.056Z,101329.60
2023-02-02T19:54:26.098Z,101327.71
2023-02-02T19:57:32.393Z,101327.71
2023-02-02T20:00:01.212Z,101330.65
2023-02-02T20:02:34.916Z,101331.52
2023-02-02T20:05:23.161Z,101327.38
2023-02-02T20:08:00.693Z,101330.48
2023-02-02T20:10:39.678Z,101332.89
2023-02-02T20:13:49.223Z,101329.27
2023-02-02T20:16:22.560Z,101329.09
2023-02-02T20:18:53.989Z,101328.59
2023-02-02T20:21:34.026Z,101329.27
2023-02-02T20:24:02.491Z,101332.71
2023-02-02T20:26:35.939Z,101336.48
2023-02-02T20:29:20.238Z,101336.48
2023-02-02T20:31:49.139Z,101339.58
2023-02-02T20:34:21.751Z,101345.10
2023-02-02T20:36:50.714Z,101346.65
2023-02-02T20:39:32.356Z,101344.40
2023-02-02T20:42:00.873Z,101338.54
2023-02-02T20:44:30.385Z,101344.37
2023-02-02T20:47:00.659Z,101345.89
2023-02-02T20:49:31.965Z,101347.65
2023-02-02T20:52:02.186Z,101347.13
2023-02-02T20:54:31.773Z,101346.41
2023-02-02T20:57:00.380Z,101348.98
2023-02-02T20:59:29.558Z,101349.69
2023-02-02T21:01:59.073Z,101351.04
2023-02-02T21:04:28.413Z,101352.08
2023-02-02T21:06:59.695Z,101357.06
2023-02-02T21:09:30.233Z,101360.14
2023-02-02T21:12:00.964Z,101364.91
2023-02-02T21:14:29.954Z,101367.27
2023-02-02T21:17:12.927Z,101369.45
2023-02-02T21:19:44.527Z,101373.52
2023-02-02T21:22:12.910Z,101373.33
2023-02-02T21:24:42.816Z,101375.77
2023-02-02T21:27:11.543Z,101381.96
2023-02-02T21:29:40.912Z,101383.80
2023-02-02T21:32:09.548Z,101385.04
2023-02-02T21:34:38.012Z,101383.04
2023-02-02T21:37:14.452Z,101384.69
2023-02-02T21:39:49.788Z,101383.29
2023-02-02T21:42:20.379Z,101377.60
2023-02-02T21:44:53.891Z,101378.80
2023-02-02T21:47:22.223Z,101376.39
2023-02-02T21:49:51.017Z,101377.59
2023-02-02T21:52:19.975Z,101373.96
2023-02-02T21:54:49.711Z,101370.36
2023-02-02T21:57:26.858Z,101367.77
2023-02-02T21:59:56.242Z,101366.88
2023-02-02T22:02:45.158Z,101367.01
2023-02-02T22:05:35.925Z,101367.31
2023-02-02T22:08:18.608Z,101367.56
2023-02-02T22:10:47.448Z,101365.44
2023-02-02T22:13:18.469Z,101357.86
2023-02-02T22:15:52.010Z,101352.70
2023-02-02T22:18:22.389Z,101354.26
2023-02-02T22:20:51.815Z,101355.09
2023-02-02T22:23:21.719Z,101357.53
2023-02-02T22:25:51.884Z,101355.98
2023-02-02T22:28:23.965Z,101357.02
2023-02-02T22:30:53.170Z,101354.44
2023-02-02T22:33:22.385Z,101351.70
2023-02-02T22:35:51.075Z,101352.91
2023-02-02T22:38:21.494Z,101352.38
2023-02-02T22:40:50.623Z,101355.92
2023-02-02T22:43:20.220Z,101351.16
2023-02-02T22:45:49.423Z,101352.30
2023-02-02T22:48:18.284Z,101351.95
2023-02-02T22:50:47.489Z,101356.40
2023-02-02T22:53:15.976Z,101358.80
2023-02-02T22:55:44.552Z,101357.27
2023-02-02T22:58:13.130Z,101356.75
2023-02-02T23:00:42.025Z,101353.84
2023-02-02T23:03:10.666Z,101355.40
2023-02-02T23:05:39.389Z,101353.86
2023-02-02T23:08:08.286Z,101348.21
2023-02-02T23:10:56.428Z,101342.73
2023-02-02T23:13:24.644Z,101341.20
2023-02-02T23:15:52.936Z,101338.10
2023-02-02T23:18:22.377Z,101338.61
2023-02-02T23:20:50.852Z,101338.59
2023-02-02T23:23:19.341Z,101337.91
2023-02-02T23:25:47.606Z,101338.92
2023-02-02T23:28:15.955Z,101338.84
2023-02-02T23:30:45.056Z,101338.21
2023-02-02T23:33:13.567Z,101337.45
2023-02-02T23:35:42.153Z,101336.18
2023-02-02T23:38:10.826Z,101338.65
2023-02-02T23:40:39.513Z,101342.36
2023-02-02T23:43:08.824Z,101345.19
2023-02-02T23:45:37.426Z,101348.48
2023-02-02T23:48:06.910Z,101350.46
2023-02-02T23:50:38.060Z,101348.34
2023-02-02T23:53:07.140Z,101347.24
2023-02-02T23:55:37.568Z,101345.33
2023-02-02T23:58:06.351Z,101343.10
